createdAt,value
2023-02-15T00:00:07.620Z,102503.09
2023-02-15T00:02:55.013Z,102489.06
2023-02-15T00:05:42.036Z,102495.22
2023-02-15T00:08:29.126Z,102491.69
2023-02-15T00:11:25.608Z,102495.19
2023-02-15T00:14:12.613Z,102489.91
2023-02-15T00:17:01.964Z,102483.78
2023-02-15T00:19:48.768Z,102496.94
2023-02-15T00:22:35.730Z,102487.25
2023-02-15T00:25:22.769Z,102484.63
2023-02-15T00:28:09.705Z,102453.88
2023-02-15T00:30:56.665Z,102469.72
2023-02-15T00:33:45.422Z,102475.88
2023-02-15T00:36:32.970Z,102486.38
2023-02-15T00:39:20.351Z,102479.31
2023-02-15T00:42:07.934Z,102467.06
2023-02-15T00:44:54.794Z,102475.81
2023-02-15T00:47:42.337Z,102475.81
2023-02-15T00:50:29.872Z,102481.06
2023-02-15T00:53:16.931Z,102476.66
2023-02-15T00:56:04.229Z,102477.50
2023-02-15T00:58:51.586Z,102472.25
2023-02-15T01:01:41.373Z,102481.84
2023-02-15T01:04:28.323Z,102448.47
2023-02-15T01:07:17.853Z,102378.16
2023-02-15T01:10:04.794Z,102463.38
2023-02-15T03:39:14.092Z,102388.16
2023-02-15T03:41:47.617Z,102400.38
2023-02-15T03:44:28.588Z,102380.16
2023-02-15T03:47:18.157Z,102385.53
2023-02-15T03:50:04.163Z,102382.09
2023-02-15T03:52:33.361Z,102333.75
2023-02-15T03:55:00.473Z,102359.25
2023-02-15T03:57:48.851Z,102383.03
2023-02-15T04:00:43.655Z,102376.88
2023-02-15T04:03:21.498Z,102371.56
2023-02-15T04:05:48.599Z,102381.19
2023-02-15T04:08:15.464Z,102376.81
2023-02-15T04:10:54.499Z,102374.16
2023-02-15T04:13:30.447Z,102382.84
2023-02-15T04:16:07.708Z,102377.59
2023-02-15T04:18:58.305Z,102375.81
2023-02-15T04:21:46.737Z,102351.16
2023-02-15T04:24:32.871Z,102375.75
2023-02-15T04:27:01.000Z,102371.38
2023-02-15T04:29:28.828Z,102370.47
2023-02-15T04:31:57.541Z,102349.41
2023-02-15T04:34:25.110Z,102350.22
2023-02-15T04:36:52.656Z,102369.53
2023-02-15T04:39:20.245Z,102313.28
2023-02-15T04:41:47.448Z,102364.25
2023-02-15T04:44:14.354Z,102369.47
2023-02-15T04:46:41.357Z,102373.81
2023-02-15T04:49:09.855Z,102364.19
2023-02-15T04:51:36.908Z,102365.91
2023-02-15T04:54:04.049Z,102359.78
2023-02-15T04:56:32.325Z,102371.09
2023-02-15T04:58:59.168Z,102320.16
2023-02-15T05:01:26.419Z,102363.22
2023-02-15T05:03:53.548Z,102358.81
2023-02-15T05:06:20.507Z,102357.91
2023-02-15T05:08:47.608Z,102349.16
2023-02-15T05:11:14.695Z,102350.84
2023-02-15T05:13:41.713Z,102344.72
2023-02-15T05:16:09.318Z,102350.81
2023-02-15T05:18:36.462Z,102338.50
2023-02-15T05:21:03.614Z,102342.00
2023-02-15T05:23:30.718Z,102347.22
2023-02-15T05:26:16.233Z,102305.00
2023-02-15T05:28:43.295Z,102342.00
2023-02-15T05:31:19.726Z,102341.13
2023-02-15T05:33:47.384Z,102332.41
2023-02-15T05:36:14.642Z,102341.13
2023-02-15T05:38:41.798Z,102346.34
2023-02-15T05:41:10.312Z,102339.34
2023-02-15T05:43:37.541Z,102348.09
2023-02-15T05:46:05.318Z,102346.31
2023-02-15T05:48:33.509Z,102348.03
2023-02-15T05:51:22.395Z,102306.66
2023-02-15T05:54:09.235Z,102336.63
2023-02-15T05:56:56.706Z,102295.19
2023-02-15T05:59:43.841Z,102335.63
2023-02-15T06:02:30.962Z,102340.03
2023-02-15T06:05:17.829Z,102327.72
2023-02-15T06:08:06.132Z,102296.00
2023-02-15T06:10:53.065Z,102294.22
2023-02-15T06:13:40.170Z,102305.59
2023-02-15T06:16:27.866Z,102316.06
2023-02-15T06:19:14.895Z,102316.00
2023-02-15T06:22:01.734Z,102340.53
2023-02-15T06:24:48.715Z,102334.38
2023-02-15T06:27:35.610Z,102297.47
2023-02-15T06:30:22.721Z,102330.84
2023-02-15T06:33:09.678Z,102333.41
2023-02-15T06:35:56.785Z,102329.88
2023-02-15T06:38:43.681Z,102279.75
2023-02-15T06:41:30.793Z,102333.28
2023-02-15T06:44:17.708Z,102331.50
2023-02-15T06:47:04.997Z,102310.34
2023-02-15T06:49:52.092Z,102277.75
2023-02-15T06:52:39.210Z,102323.56
2023-02-15T06:55:26.828Z,102320.84
2023-02-15T06:58:14.037Z,102312.94
2023-02-15T07:01:00.841Z,102328.69
2023-02-15T07:03:47.928Z,102316.47
2023-02-15T07:06:34.799Z,102311.22
2023-02-15T07:09:22.141Z,102301.41
2023-02-15T07:12:07.862Z,102325.97
2023-02-15T07:14:54.881Z,102319.00
2023-02-15T07:17:41.902Z,102312.00
2023-02-15T07:20:40.695Z,102311.06
2023-02-15T07:23:27.591Z,102306.66
2023-02-15T07:26:18.922Z,102313.66
2023-02-15T07:29:05.726Z,102317.09
2023-02-15T07:31:52.759Z,102263.47
2023-02-15T07:34:39.688Z,102236.25
2023-02-15T07:37:26.695Z,102306.59
2023-02-15T07:40:13.593Z,102249.44
2023-02-15T07:43:00.571Z,102253.03
2023-02-15T07:45:47.525Z,102295.19
2023-02-15T07:48:34.596Z,102289.25
2023-02-15T07:51:26.038Z,102189.06
2023-02-15T07:54:13.015Z,102283.19
2023-02-15T07:56:59.933Z,102291.09
2023-02-15T07:59:46.943Z,102290.25
2023-02-15T08:02:33.903Z,102286.75
2023-02-15T08:05:20.921Z,102247.25
2023-02-15T08:08:07.751Z,102284.09
2023-02-15T08:10:53.182Z,102277.97
2023-02-15T08:13:20.107Z,102277.91
2023-02-15T08:15:51.356Z,102248.91
2023-02-15T08:18:19.108Z,102271.75
2023-02-15T08:20:51.235Z,102270.03
2023-02-15T08:23:18.174Z,102263.84
2023-02-15T08:25:45.194Z,102267.41
2023-02-15T08:28:12.228Z,102249.03
2023-02-15T08:30:39.188Z,102256.97
2023-02-15T08:33:06.148Z,102260.47
2023-02-15T08:35:33.034Z,102257.88
2023-02-15T08:38:19.963Z,102255.28
2023-02-15T08:41:06.855Z,102250.97
2023-02-15T08:43:53.878Z,102252.72
2023-02-15T08:46:43.159Z,102237.88
2023-02-15T08:49:32.755Z,102237.97
2023-02-15T08:52:19.833Z,102238.88
2023-02-15T08:55:07.027Z,102238.88
2023-02-15T08:57:54.051Z,102234.56
2023-02-15T09:00:41.608Z,102232.00
2023-02-15T09:03:28.452Z,102213.59
2023-02-15T09:06:22.523Z,102230.31
2023-02-15T09:09:12.991Z,102216.38
2023-02-15T09:12:05.116Z,102212.06
2023-02-15T09:14:52.099Z,102207.72
2023-02-15T09:17:39.006Z,102212.13
2023-02-15T09:20:26.592Z,102202.50
2023-02-15T09:23:26.371Z,102209.59
2023-02-15T09:26:13.610Z,102213.97
2023-02-15T09:29:01.399Z,102208.78
2023-02-15T09:31:51.105Z,102206.22
2023-02-15T09:34:40.622Z,102187.00
2023-02-15T09:37:27.595Z,102192.34
2023-02-15T09:40:14.537Z,102194.16
2023-02-15T09:43:36.762Z,102180.13
2023-02-15T09:46:28.693Z,102197.75
2023-02-15T09:49:42.665Z,102188.19
2023-02-15T09:52:51.295Z,102188.25
2023-02-15T09:56:01.254Z,102162.03
2023-02-15T09:59:06.638Z,102169.06
2023-02-15T10:02:07.661Z,102190.13
2023-02-15T10:05:23.258Z,102190.19
2023-02-15T10:08:45.146Z,102184.16
2023-02-15T10:11:30.731Z,102185.06
2023-02-15T10:14:39.095Z,102179.00
2023-02-15T10:17:25.989Z,102192.13
2023-02-15T10:20:40.481Z,102184.31
2023-02-15T10:23:07.498Z,102185.25
2023-02-15T10:26:00.935Z,102183.50
2023-02-15T10:28:30.811Z,102166.91
2023-02-15T10:31:29.794Z,102174.84
2023-02-15T10:34:21.317Z,102178.38
2023-02-15T10:36:51.048Z,102170.53
2023-02-15T10:39:51.027Z,102171.44
2023-02-15T10:42:42.141Z,102174.09
2023-02-15T10:45:40.841Z,102176.75
2023-02-15T10:48:23.710Z,102175.91
2023-02-15T10:50:53.891Z,102162.81
2023-02-15T10:53:56.135Z,102166.31
2023-02-15T10:56:34.729Z,102160.25
2023-02-15T10:59:35.488Z,102162.88
2023-02-15T11:02:32.754Z,102156.78
2023-02-15T11:05:11.886Z,102155.94
2023-02-15T11:07:42.613Z,102160.34
2023-02-15T11:10:17.484Z,102151.59
2023-02-15T11:12:48.319Z,102156.00
2023-02-15T11:16:06.507Z,102149.88
2023-02-15T11:18:38.009Z,102133.22
2023-02-15T11:21:11.472Z,102140.28
2023-02-15T11:23:46.085Z,102138.53
2023-02-15T11:26:20.225Z,102139.41
2023-02-15T11:28:58.670Z,102132.44
2023-02-15T11:31:47.747Z,102111.41
2023-02-15T11:35:21.079Z,102128.09
2023-02-15T11:38:11.320Z,102133.38
2023-02-15T11:41:09.926Z,102090.44
2023-02-15T11:44:15.249Z,102122.88
2023-02-15T11:47:02.398Z,102115.00
2023-02-15T11:49:34.469Z,102107.13
2023-02-15T11:52:13.357Z,102118.50
2023-02-15T11:54:43.600Z,102118.53
2023-02-15T11:57:13.509Z,102114.16
2023-02-15T11:59:44.390Z,102107.16
2023-02-15T12:02:40.874Z,102097.53
2023-02-15T12:05:14.654Z,102059.88
2023-02-15T12:08:07.751Z,102090.50
2023-02-15T12:11:04.253Z,102097.56
2023-02-15T12:13:51.530Z,102106.28
2023-02-15T12:16:38.658Z,102093.16
2023-02-15T12:19:25.707Z,102087.94
2023-02-15T12:21:54.287Z,102041.50
2023-02-15T12:24:30.296Z,102083.53
2023-02-15T12:27:16.314Z,102009.09
2023-02-15T12:29:48.551Z,102080.03
2023-02-15T12:32:23.539Z,102082.66
2023-02-15T12:34:52.654Z,102043.25
2023-02-15T12:37:26.739Z,102076.53
2023-02-15T12:39:59.233Z,102094.03
2023-02-15T12:42:29.313Z,102085.28
2023-02-15T12:44:58.377Z,102091.41
2023-02-15T12:47:30.723Z,102087.91
2023-02-15T12:50:12.125Z,102083.50
2023-02-15T12:52:40.248Z,102038.88
2023-02-15T12:55:23.628Z,102088.78
2023-02-15T12:58:06.596Z,102090.53
2023-02-15T13:00:33.780Z,102093.19
2023-02-15T13:03:01.686Z,102065.13
2023-02-15T13:05:47.819Z,102083.53
2023-02-15T13:08:21.831Z,102067.75
2023-02-15T13:11:00.208Z,102087.91
2023-02-15T13:13:31.197Z,102079.16
2023-02-15T13:16:03.752Z,102077.41
2023-02-15T13:18:40.445Z,102073.91
2023-02-15T13:21:31.426Z,102070.38
2023-02-15T13:24:23.696Z,102068.66
2023-02-15T13:27:15.748Z,102040.59
2023-02-15T13:30:10.690Z,102069.53
2023-02-15T13:33:00.561Z,102028.38
2023-02-15T13:35:57.943Z,102058.13
2023-02-15T13:39:14.951Z,102053.75
2023-02-15T13:42:18.564Z,102045.00
2023-02-15T13:45:26.081Z,102049.38
2023-02-15T13:48:58.252Z,102024.00
2023-02-15T13:51:51.275Z,102044.09
2023-02-15T13:54:55.900Z,102022.22
2023-02-15T13:57:45.618Z,102047.63
2023-02-15T14:00:57.375Z,102042.38
2023-02-15T14:03:50.414Z,102039.75
2023-02-15T14:06:55.513Z,102032.75
2023-02-15T14:10:04.919Z,102032.75
2023-02-15T14:12:51.829Z,102034.50
2023-02-15T14:15:50.999Z,102027.50
2023-02-15T14:19:00.610Z,102014.34
2023-02-15T14:22:08.126Z,102014.34
2023-02-15T14:25:03.423Z,101999.47
2023-02-15T14:28:20.332Z,102012.59
2023-02-15T14:31:11.051Z,101973.22
2023-02-15T14:34:08.150Z,102007.34
2023-02-15T14:36:55.284Z,102009.97
2023-02-15T14:40:02.202Z,101998.59
2023-02-15T14:43:04.445Z,102009.97
2023-02-15T14:45:54.605Z,101998.59
2023-02-15T14:48:58.562Z,101995.97
2023-02-15T14:52:09.485Z,102005.63
2023-02-15T14:54:56.444Z,101988.97
2023-02-15T14:57:45.043Z,102003.84
2023-02-15T15:00:57.894Z,102003.00
2023-02-15T15:03:46.207Z,102001.22
2023-02-15T15:06:47.101Z,101998.59
2023-02-15T15:09:47.949Z,101994.22
2023-02-15T15:12:48.379Z,101995.13
2023-02-15T15:15:41.402Z,101990.72
2023-02-15T15:18:30.387Z,101982.84
2023-02-15T15:21:17.341Z,101979.38
2023-02-15T15:24:05.515Z,101983.72
2023-02-15T15:26:56.515Z,101972.34
2023-02-15T15:30:01.226Z,101968.84
2023-02-15T15:32:54.377Z,101975.84
2023-02-15T15:36:22.928Z,101971.47
2023-02-15T15:39:33.729Z,101966.22
2023-02-15T15:42:42.466Z,101976.72
2023-02-15T15:45:54.160Z,101967.97
2023-02-15T15:48:51.256Z,101960.94
2023-02-15T15:51:55.458Z,101960.09
2023-02-15T15:54:46.101Z,101957.47
2023-02-15T15:57:54.374Z,101955.72
2023-02-15T16:00:48.875Z,101949.59
2023-02-15T16:03:44.150Z,101940.84
2023-02-15T16:06:35.347Z,101945.22
2023-02-15T16:09:42.954Z,101918.97
2023-02-15T16:12:38.680Z,101932.09
2023-02-15T16:15:36.417Z,101930.34
2023-02-15T16:18:26.123Z,101911.09
2023-02-15T16:21:16.467Z,101927.72
2023-02-15T16:24:15.316Z,101923.34
2023-02-15T16:27:29.473Z,101915.47
2023-02-15T16:30:16.498Z,101906.72
2023-02-15T16:33:03.439Z,101911.97
2023-02-15T16:35:50.418Z,101908.44
2023-02-15T16:38:38.954Z,101904.09
2023-02-15T16:41:26.114Z,101899.72
2023-02-15T16:44:14.920Z,101887.47
2023-02-15T16:47:05.826Z,101889.22
2023-02-15T16:49:55.125Z,101886.59
2023-02-15T16:52:45.639Z,101883.09
2023-02-15T16:55:42.972Z,101868.22
2023-02-15T16:58:36.953Z,101874.31
2023-02-15T17:01:23.001Z,101872.59
2023-02-15T17:04:11.709Z,101866.47
2023-02-15T17:06:59.149Z,101832.38
2023-02-15T17:09:42.412Z,101866.44
2023-02-15T17:12:30.336Z,101861.19
2023-02-15T17:15:17.572Z,101849.84
2023-02-15T17:18:04.481Z,101846.34
2023-02-15T17:20:52.561Z,101845.44
2023-02-15T17:23:49.772Z,101839.34
2023-02-15T17:26:51.246Z,101815.75
2023-02-15T17:29:49.059Z,101841.06
2023-02-15T17:32:43.479Z,101761.53
2023-02-15T17:35:41.064Z,101826.22
2023-02-15T17:38:41.751Z,101820.06
2023-02-15T17:41:28.665Z,101823.59
2023-02-15T17:44:16.238Z,101820.94
2023-02-15T17:47:03.381Z,101816.56
2023-02-15T17:49:50.582Z,101813.94
2023-02-15T17:52:37.906Z,101810.44
2023-02-15T17:55:33.645Z,101803.41
2023-02-15T17:58:21.424Z,101793.81
2023-02-15T18:01:08.811Z,101791.19
2023-02-15T18:04:03.366Z,101780.69
2023-02-15T18:06:49.236Z,101754.47
2023-02-15T18:09:36.825Z,101764.94
2023-02-15T18:12:34.191Z,101775.41
2023-02-15T18:15:21.155Z,101769.28
2023-02-15T18:18:08.154Z,101764.03
2023-02-15T18:20:59.594Z,101758.78
2023-02-15T18:23:46.669Z,101741.28
2023-02-15T18:26:41.771Z,101752.63
2023-02-15T18:29:29.044Z,101744.75
2023-02-15T18:32:16.337Z,101733.38
2023-02-15T18:35:06.858Z,101745.66
2023-02-15T18:37:54.142Z,101717.69
2023-02-15T18:40:43.315Z,101736.88
2023-02-15T18:43:33.433Z,101684.53
2023-02-15T18:46:20.394Z,101731.63
2023-02-15T18:49:07.525Z,101729.84
2023-02-15T18:51:54.617Z,101703.66
2023-02-15T18:54:45.486Z,101724.59
2023-02-15T18:57:36.406Z,101716.72
2023-02-15T19:00:24.101Z,101719.31
2023-02-15T19:03:11.519Z,101705.31
2023-02-15T19:05:58.402Z,101699.16
2023-02-15T19:08:45.430Z,101700.91
2023-02-15T19:11:40.399Z,101703.56
2023-02-15T19:14:43.368Z,101691.25
2023-02-15T19:17:38.816Z,101680.75
2023-02-15T19:20:26.421Z,101684.25
2023-02-15T19:23:16.216Z,101676.38
2023-02-15T19:26:03.466Z,101684.25
2023-02-15T19:28:53.553Z,101674.66
2023-02-15T19:31:40.814Z,101678.09
2023-02-15T19:34:38.550Z,101672.84
2023-02-15T19:37:27.602Z,101650.16
2023-02-15T19:40:14.653Z,101667.56
2023-02-15T19:43:01.745Z,101656.22
2023-02-15T19:45:51.068Z,101654.41
2023-02-15T19:48:38.722Z,101649.16
2023-02-15T19:51:25.733Z,101638.66
2023-02-15T19:54:13.048Z,101634.28
2023-02-15T19:56:59.818Z,101570.59
2023-02-15T19:59:52.485Z,101620.25
2023-02-15T20:02:39.296Z,101603.72
2023-02-15T20:05:26.730Z,101571.47
2023-02-15T20:08:14.320Z,101601.91
2023-02-15T20:11:01.562Z,101564.47
2023-02-15T20:13:48.644Z,101602.78
2023-02-15T20:16:35.757Z,101601.88
2023-02-15T20:19:22.676Z,101602.75
2023-02-15T20:22:09.578Z,101589.66
2023-02-15T20:24:56.431Z,101594.84
2023-02-15T20:27:43.961Z,101559.97
2023-02-15T20:30:43.094Z,101603.63
2023-02-15T20:33:30.021Z,101591.41
2023-02-15T20:36:18.638Z,101581.81
2023-02-15T20:39:06.268Z,101594.00
2023-02-15T20:41:55.994Z,101586.97
2023-02-15T20:44:48.098Z,101584.34
2023-02-15T20:47:35.059Z,101583.50
2023-02-15T20:50:22.189Z,101576.50
2023-02-15T20:53:10.821Z,101579.09
2023-02-15T20:55:57.870Z,101581.72
2023-02-15T20:58:50.175Z,101578.25
2023-02-15T21:01:37.803Z,101557.25
2023-02-15T21:04:25.077Z,101567.75
2023-02-15T21:07:12.060Z,101570.34
2023-02-15T21:09:59.000Z,101566.00
2023-02-15T21:12:46.046Z,101570.34
2023-02-15T21:15:57.214Z,101565.09
2023-02-15T21:18:50.755Z,101562.47
2023-02-15T21:21:42.431Z,101565.09
2023-02-15T21:24:39.417Z,101542.44
2023-02-15T21:27:26.883Z,101555.41
2023-02-15T21:30:13.934Z,101549.31
2023-02-15T21:33:00.755Z,101553.69
2023-02-15T21:35:48.732Z,101544.91
2023-02-15T21:38:38.304Z,101481.34
2023-02-15T21:41:25.364Z,101497.00
2023-02-15T21:44:10.863Z,101533.56
2023-02-15T21:46:56.847Z,101530.94
2023-02-15T21:49:44.179Z,101536.19
2023-02-15T21:52:43.849Z,101521.34
2023-02-15T21:55:34.708Z,101530.94
2023-02-15T21:58:22.226Z,101495.16
2023-02-15T22:01:09.199Z,101501.19
2023-02-15T22:03:58.093Z,101512.53
2023-02-15T22:06:45.282Z,101489.84
2023-02-15T22:09:41.140Z,101498.50
2023-02-15T22:12:35.193Z,101499.41
2023-02-15T22:15:22.284Z,101502.88
2023-02-15T22:18:09.861Z,101495.88
2023-02-15T22:20:56.942Z,101493.25
2023-02-15T22:23:44.116Z,101432.25
2023-02-15T22:27:00.490Z,101479.22
2023-02-15T22:29:47.654Z,101473.09
2023-02-15T22:32:39.468Z,101477.47
2023-02-15T22:35:27.349Z,101469.59
2023-02-15T22:38:15.460Z,101460.81
2023-02-15T22:41:02.782Z,101465.19
2023-02-15T22:43:50.041Z,101467.81
2023-02-15T22:46:40.943Z,101460.78
2023-02-15T22:49:32.821Z,101455.53
2023-02-15T22:52:19.846Z,101451.19
2023-02-15T22:55:06.939Z,101448.53
2023-02-15T22:57:53.953Z,101435.41
2023-02-15T23:00:44.378Z,101427.50
2023-02-15T23:03:41.224Z,101429.25
2023-02-15T23:06:29.898Z,101378.75
2023-02-15T23:09:16.687Z,101420.50
2023-02-15T23:12:03.714Z,101414.38
2023-02-15T23:14:55.171Z,101360.34
2023-02-15T23:17:42.425Z,101404.72
2023-02-15T23:20:34.734Z,101383.81
2023-02-15T23:23:21.788Z,101402.94
2023-02-15T23:26:08.738Z,101406.47
2023-02-15T23:28:58.074Z,101394.19
2023-02-15T23:31:51.511Z,101393.31
2023-02-15T23:34:33.314Z,101385.44
2023-02-15T23:37:00.385Z,101383.66
2023-02-15T23:39:47.458Z,101392.41
2023-02-15T23:42:21.364Z,101385.41
2023-02-15T23:44:49.043Z,101391.50
2023-02-15T23:47:47.151Z,101380.09
2023-02-15T23:50:39.133Z,101333.03
2023-02-15T23:53:26.176Z,101367.84
2023-02-15T23:56:13.872Z,101368.69
2023-02-15T23:59:03.929Z,101350.44
